createdAt,value
2019-02-15T00:00:44.986Z,0.60
2019-02-15T00:03:14.617Z,0.60
2019-02-15T00:05:44.211Z,0.50
2019-02-15T00:08:13.807Z,0.40
2019-02-15T00:10:43.430Z,0.30
2019-02-15T00:13:13.853Z,0.30
2019-02-15T00:15:43.688Z,0.20
2019-02-15T00:18:30.314Z,0.30
2019-02-15T00:21:01.613Z,0.30
2019-02-15T00:23:31.203Z,0.20
2019-02-15T00:26:00.815Z,0.30
2019-02-15T00:28:30.409Z,0.50
2019-02-15T00:31:00.007Z,0.60
2019-02-15T00:33:29.628Z,0.70
2019-02-15T00:35:59.244Z,0.80
2019-02-15T00:38:29.169Z,0.90
2019-02-15T00:40:59.049Z,1.00
2019-02-15T00:43:28.641Z,1.00
2019-02-15T00:46:05.780Z,1.00
2019-02-15T00:48:35.373Z,1.00
2019-02-15T00:51:22.512Z,1.00
2019-02-15T00:53:53.764Z,1.00
2019-02-15T00:56:27.669Z,0.80
2019-02-15T00:59:02.828Z,0.50
2019-02-15T01:01:48.767Z,0.30
2019-02-15T01:04:36.254Z,0.20
2019-02-15T01:07:16.573Z,0.20
2019-02-15T01:09:59.468Z,0.30
2019-02-15T01:12:30.727Z,0.40
2019-02-15T01:15:00.338Z,0.40
2019-02-15T01:17:29.964Z,0.50
2019-02-15T01:19:59.550Z,0.80
2019-02-15T01:22:29.146Z,0.80
2019-02-15T01:24:59.872Z,0.80
2019-02-15T01:27:34.183Z,0.70
2019-02-15T01:30:09.424Z,0.70
2019-02-15T01:32:47.219Z,0.60
2019-02-15T01:35:18.478Z,0.30
2019-02-15T01:37:49.778Z,0.20
2019-02-15T01:40:32.888Z,0.10
2019-02-15T01:43:04.207Z,0.20
2019-02-15T01:45:35.521Z,0.00
2019-02-15T01:48:05.148Z,-0.10
2019-02-15T01:50:34.772Z,0.10
2019-02-15T01:53:05.274Z,0.00
2019-02-15T01:55:34.877Z,-0.10
2019-02-15T01:58:04.492Z,0.10
2019-02-15T02:00:35.813Z,0.00
2019-02-15T02:03:05.480Z,-0.10
2019-02-15T02:05:35.106Z,-0.10
2019-02-15T02:08:06.484Z,0.00
2019-02-15T02:10:36.075Z,-0.10
2019-02-15T02:13:05.733Z,0.10
2019-02-15T02:15:35.368Z,0.10
2019-02-15T02:18:04.957Z,0.20
2019-02-15T02:20:34.549Z,0.00
2019-02-15T02:23:04.173Z,-0.10
2019-02-15T02:25:33.773Z,-0.10
2019-02-15T02:28:03.395Z,-0.20
2019-02-15T02:30:33.065Z,-0.30
2019-02-15T02:33:02.691Z,-0.40
2019-02-15T02:35:32.293Z,-0.40
2019-02-15T02:38:01.910Z,-0.30
2019-02-15T02:40:31.507Z,-0.10
2019-02-15T02:43:01.210Z,0.00
2019-02-15T02:45:30.806Z,0.10
2019-02-15T02:48:00.427Z,0.00
2019-02-15T02:50:30.042Z,0.00
2019-02-15T02:52:59.641Z,-0.20
2019-02-15T02:55:29.566Z,-0.30
2019-02-15T02:57:59.223Z,-0.30
2019-02-15T03:00:33.636Z,-0.20
2019-02-15T03:03:00.213Z,-0.20
2019-02-15T03:05:29.829Z,-0.40
2019-02-15T03:07:59.420Z,-0.40
2019-02-15T03:10:29.624Z,-0.40
2019-02-15T03:12:59.244Z,-0.40
2019-02-15T03:15:28.841Z,-0.30
2019-02-15T03:17:58.436Z,-0.40
2019-02-15T03:20:31.267Z,-0.40
2019-02-15T03:22:59.376Z,-0.40
2019-02-15T03:25:29.001Z,-0.50
2019-02-15T03:27:58.626Z,-0.70
2019-02-15T03:30:28.256Z,-0.80
2019-02-15T03:32:57.851Z,-0.80
2019-02-15T03:35:27.452Z,-0.80
2019-02-15T03:38:01.678Z,-0.70
2019-02-15T03:40:32.909Z,-0.70
2019-02-15T03:43:02.528Z,-0.70
2019-02-15T03:45:32.161Z,-0.70
2019-02-15T03:48:01.761Z,-0.60
2019-02-15T03:50:31.382Z,-0.60
2019-02-15T03:53:00.979Z,-0.90
2019-02-15T03:55:30.615Z,-1.10
2019-02-15T03:58:00.234Z,-1.10
2019-02-15T04:00:30.010Z,-0.90
2019-02-15T04:02:59.678Z,-0.80
2019-02-15T04:05:29.282Z,-0.70
2019-02-15T04:07:58.913Z,-0.50
2019-02-15T04:10:28.502Z,-0.40
2019-02-15T04:12:58.131Z,-0.30
2019-02-15T04:15:27.727Z,-0.40
2019-02-15T04:17:57.352Z,-0.40
2019-02-15T04:20:26.951Z,-0.50
2019-02-15T04:22:56.577Z,-0.70
2019-02-15T04:25:26.180Z,-0.80
2019-02-15T04:27:55.816Z,-0.80
2019-02-15T04:30:25.422Z,-0.80
2019-02-15T04:32:55.037Z,-0.70
2019-02-15T04:35:24.662Z,-0.60
2019-02-15T04:37:54.283Z,-0.70
2019-02-15T04:40:24.716Z,-0.70
2019-02-15T04:42:54.345Z,-0.70
2019-02-15T04:45:23.934Z,-0.70
2019-02-15T04:47:53.561Z,-0.70
2019-02-15T04:50:23.165Z,-0.70
2019-02-15T04:52:53.091Z,-0.70
2019-02-15T04:55:22.685Z,-0.50
2019-02-15T04:57:52.319Z,-0.40
2019-02-15T05:00:21.916Z,-0.40
2019-02-15T05:02:51.541Z,-0.50
2019-02-15T05:05:21.137Z,-0.70
2019-02-15T05:07:50.766Z,-0.90
2019-02-15T05:10:20.642Z,-1.00
2019-02-15T05:12:50.283Z,-1.00
2019-02-15T05:15:19.872Z,-1.00
2019-02-15T05:17:49.498Z,-0.90
2019-02-15T05:20:19.101Z,-0.70
2019-02-15T05:22:49.604Z,-0.80
2019-02-15T05:25:19.178Z,-0.80
2019-02-15T05:27:48.769Z,-0.80
2019-02-15T05:30:18.396Z,-0.80
2019-02-15T05:32:48.068Z,-0.60
2019-02-15T05:35:19.118Z,-0.50
2019-02-15T05:37:49.507Z,-0.60
2019-02-15T05:40:19.132Z,-0.70
2019-02-15T05:42:48.762Z,-0.70
2019-02-15T05:45:19.142Z,-0.80
2019-02-15T05:47:49.313Z,-0.90
2019-02-15T05:50:18.924Z,-0.80
2019-02-15T05:52:48.546Z,-0.70
2019-02-15T05:55:18.909Z,-0.70
2019-02-15T05:57:48.536Z,-0.70
2019-02-15T06:00:18.205Z,-0.70
2019-02-15T06:02:48.210Z,-0.70
2019-02-15T06:05:17.877Z,-0.60
2019-02-15T06:07:48.041Z,-0.50
2019-02-15T06:10:17.702Z,-0.50
2019-02-15T06:12:47.323Z,-0.60
2019-02-15T06:15:16.921Z,-0.70
2019-02-15T06:17:46.597Z,-0.80
2019-02-15T06:20:17.996Z,-0.70
2019-02-15T06:22:47.625Z,-0.70
2019-02-15T06:25:17.220Z,-0.60
2019-02-15T06:27:46.840Z,-0.60
2019-02-15T06:30:16.438Z,-0.60
2019-02-15T06:32:46.069Z,-0.60
2019-02-15T06:35:15.675Z,-0.50
2019-02-15T06:37:45.267Z,-0.50
2019-02-15T06:40:14.898Z,-0.50
2019-02-15T06:42:44.492Z,-0.50
2019-02-15T06:45:23.974Z,-0.50
2019-02-15T06:47:46.448Z,-0.50
2019-02-15T06:50:16.074Z,-0.50
2019-02-15T06:52:45.678Z,-0.50
2019-02-15T06:55:15.399Z,-0.40
2019-02-15T06:57:44.993Z,-0.20
2019-02-15T07:00:16.400Z,-0.10
2019-02-15T07:02:53.358Z,0.10
2019-02-15T07:05:28.393Z,0.00
2019-02-15T07:07:58.021Z,0.00
2019-02-15T07:10:27.615Z,0.00
2019-02-15T07:12:57.221Z,0.20
2019-02-15T07:15:33.392Z,0.30
2019-02-15T07:17:58.148Z,0.40
2019-02-15T07:20:27.768Z,0.60
2019-02-15T07:22:57.353Z,0.70
2019-02-15T07:25:28.642Z,0.70
2019-02-15T07:27:58.253Z,0.90
2019-02-15T07:30:27.879Z,1.00
2019-02-15T07:32:57.463Z,1.20
2019-02-15T07:35:27.051Z,1.30
2019-02-15T07:37:57.409Z,1.30
2019-02-15T07:40:27.034Z,1.40
2019-02-15T07:42:56.649Z,1.50
2019-02-15T07:45:26.242Z,1.60
2019-02-15T07:47:55.867Z,1.70
2019-02-15T07:50:25.460Z,1.80
2019-02-15T07:52:55.845Z,2.00
2019-02-15T07:55:25.488Z,2.00
2019-02-15T07:57:55.472Z,2.20
2019-02-15T08:00:25.072Z,2.30
2019-02-15T08:02:54.695Z,2.40
2019-02-15T08:05:24.362Z,2.70
2019-02-15T08:07:53.974Z,2.80
2019-02-15T08:10:23.574Z,2.90
2019-02-15T08:12:53.199Z,3.10
2019-02-15T08:15:23.924Z,3.30
2019-02-15T08:17:53.551Z,3.50
2019-02-15T08:20:23.175Z,3.70
2019-02-15T08:22:52.762Z,3.90
2019-02-15T08:25:23.265Z,4.00
2019-02-15T08:27:52.854Z,4.10
2019-02-15T08:30:23.463Z,4.10
2019-02-15T08:32:53.079Z,4.30
2019-02-15T08:35:22.676Z,4.60
2019-02-15T08:37:52.287Z,4.80
2019-02-15T08:40:21.932Z,5.00
2019-02-15T08:42:51.600Z,5.00
2019-02-15T08:45:21.220Z,5.10
2019-02-15T08:47:51.080Z,5.30
2019-02-15T08:50:22.368Z,5.40
2019-02-15T08:52:51.985Z,5.70
2019-02-15T08:55:22.056Z,5.90
2019-02-15T08:57:51.677Z,6.20
2019-02-15T09:00:21.295Z,6.30
2019-02-15T09:02:51.248Z,6.40
2019-02-15T09:05:20.859Z,6.60
2019-02-15T09:07:50.520Z,6.60
2019-02-15T09:10:20.140Z,6.80
2019-02-15T09:12:49.818Z,6.90
2019-02-15T09:15:23.626Z,7.10
2019-02-15T09:17:53.948Z,7.20
2019-02-15T09:20:23.864Z,7.30
2019-02-15T09:22:54.122Z,7.40
2019-02-15T09:25:25.586Z,7.50
2019-02-15T09:28:14.984Z,7.60
2019-02-15T09:30:46.486Z,7.80
2019-02-15T09:33:16.100Z,7.90
2019-02-15T09:35:45.742Z,8.10
2019-02-15T09:38:15.328Z,8.10
2019-02-15T09:40:44.914Z,8.20
2019-02-15T09:43:14.536Z,8.30
2019-02-15T09:45:44.151Z,8.40
2019-02-15T09:48:13.817Z,8.50
2019-02-15T09:50:43.836Z,8.50
2019-02-15T09:53:13.457Z,8.60
2019-02-15T09:55:43.069Z,8.70
2019-02-15T09:58:12.659Z,8.80
2019-02-15T10:00:42.278Z,9.00
2019-02-15T10:03:12.637Z,9.10
2019-02-15T10:05:42.320Z,9.30
2019-02-15T10:08:11.918Z,9.40
2019-02-15T10:10:41.772Z,9.50
2019-02-15T10:13:11.370Z,9.50
2019-02-15T10:15:41.004Z,9.60
2019-02-15T10:18:10.594Z,9.70
2019-02-15T10:20:40.221Z,9.80
2019-02-15T10:23:09.819Z,9.90
2019-02-15T10:25:39.448Z,9.80
2019-02-15T10:28:09.809Z,9.80
2019-02-15T10:30:40.105Z,9.80
2019-02-15T10:33:09.702Z,9.90
2019-02-15T10:35:39.598Z,9.90
2019-02-15T10:38:09.422Z,9.90
2019-02-15T10:40:39.051Z,10.00
2019-02-15T10:43:08.745Z,10.00
2019-02-15T10:45:38.648Z,10.00
2019-02-15T10:48:08.344Z,10.10
2019-02-15T10:50:38.192Z,10.20
2019-02-15T10:53:07.797Z,10.20
2019-02-15T10:55:38.166Z,10.20
2019-02-15T10:58:08.846Z,10.20
2019-02-15T11:00:38.510Z,10.20
2019-02-15T11:03:08.208Z,10.20
2019-02-15T11:05:37.828Z,10.20
2019-02-15T11:08:07.529Z,10.30
2019-02-15T11:10:37.157Z,10.30
2019-02-15T11:13:07.665Z,10.20
2019-02-15T11:15:37.269Z,10.00
2019-02-15T11:18:06.881Z,10.00
2019-02-15T11:20:36.499Z,9.90
2019-02-15T11:23:06.115Z,9.80
2019-02-15T11:25:35.712Z,9.80
2019-02-15T11:28:05.323Z,9.70
2019-02-15T11:30:34.948Z,9.70
2019-02-15T11:33:04.643Z,9.70
2019-02-15T11:35:34.230Z,9.60
2019-02-15T11:38:04.124Z,9.60
2019-02-15T11:40:33.709Z,9.60
2019-02-15T11:43:04.083Z,9.80
2019-02-15T11:45:33.700Z,9.70
2019-02-15T11:48:03.287Z,9.60
2019-02-15T11:50:32.898Z,9.60
2019-02-15T11:53:02.517Z,9.60
2019-02-15T11:55:32.141Z,9.70
2019-02-15T11:58:01.734Z,9.70
2019-02-15T12:00:35.727Z,9.70
2019-02-15T12:03:05.488Z,9.70
2019-02-15T12:05:35.077Z,9.80
2019-02-15T12:08:04.703Z,9.90
2019-02-15T12:10:34.293Z,9.80
2019-02-15T12:13:03.916Z,9.90
2019-02-15T12:15:33.507Z,9.80
2019-02-15T12:18:03.128Z,9.80
2019-02-15T12:20:32.729Z,10.00
2019-02-15T12:23:02.353Z,10.20
2019-02-15T12:25:32.052Z,10.30
2019-02-15T12:28:01.651Z,10.40
2019-02-15T12:30:31.322Z,10.30
2019-02-15T12:33:01.054Z,10.30
2019-02-15T12:35:30.646Z,10.30
2019-02-15T12:38:00.243Z,10.30
2019-02-15T12:40:29.861Z,10.30
2019-02-15T12:42:59.481Z,10.40
2019-02-15T12:45:29.149Z,10.40
2019-02-15T12:47:58.779Z,10.40
2019-02-15T12:50:28.384Z,10.30
2019-02-15T12:52:58.009Z,10.30
2019-02-15T12:55:27.628Z,10.30
2019-02-15T12:57:57.229Z,10.30
2019-02-15T13:00:26.856Z,10.30
2019-02-15T13:02:56.465Z,10.40
2019-02-15T13:05:26.091Z,10.40
2019-02-15T13:07:56.022Z,10.40
2019-02-15T13:10:30.210Z,10.40
2019-02-15T13:12:59.844Z,10.50
2019-02-15T13:15:29.444Z,10.50
2019-02-15T13:17:59.142Z,10.60
2019-02-15T13:20:28.848Z,10.60
2019-02-15T13:22:58.487Z,10.60
2019-02-15T13:25:36.598Z,10.50
2019-02-15T13:27:59.442Z,10.50
2019-02-15T13:30:29.079Z,10.40
2019-02-15T13:32:58.675Z,10.40
2019-02-15T13:35:28.289Z,10.50
2019-02-15T13:37:57.985Z,10.50
2019-02-15T13:40:27.630Z,10.60
2019-02-15T13:42:57.226Z,10.60
2019-02-15T13:45:26.826Z,10.60
2019-02-15T13:47:56.690Z,10.50
2019-02-15T13:50:26.291Z,10.50
2019-02-15T13:52:55.889Z,10.50
2019-02-15T13:55:25.525Z,10.50
2019-02-15T13:57:55.134Z,10.40
2019-02-15T14:00:25.325Z,10.50
2019-02-15T14:02:54.922Z,10.60
2019-02-15T14:05:24.561Z,10.60
2019-02-15T14:07:54.162Z,10.50
2019-02-15T14:10:23.828Z,10.60
2019-02-15T14:12:53.465Z,10.60
2019-02-15T14:15:23.089Z,10.50
2019-02-15T14:17:52.708Z,10.50
2019-02-15T14:20:22.317Z,10.50
2019-02-15T14:22:51.942Z,10.50
2019-02-15T14:25:21.554Z,10.50
2019-02-15T14:27:51.937Z,10.50
2019-02-15T14:30:21.542Z,10.50
2019-02-15T14:32:51.169Z,10.50
2019-02-15T14:35:20.795Z,10.50
2019-02-15T14:37:52.454Z,10.50
2019-02-15T14:40:22.158Z,10.50
2019-02-15T14:42:52.571Z,10.50
2019-02-15T14:45:22.204Z,10.50
2019-02-15T14:47:55.296Z,10.50
2019-02-15T14:50:23.864Z,10.40
2019-02-15T14:52:53.758Z,10.40
2019-02-15T14:55:23.394Z,10.30
2019-02-15T14:57:52.999Z,10.30
2019-02-15T15:00:22.649Z,10.20
2019-02-15T15:02:52.707Z,10.20
2019-02-15T15:05:22.338Z,10.10
2019-02-15T15:07:51.943Z,10.10
2019-02-15T15:10:22.356Z,10.10
2019-02-15T15:12:51.962Z,10.10
2019-02-15T15:15:21.567Z,10.10
2019-02-15T15:18:00.649Z,10.10
2019-02-15T15:20:22.519Z,10.10
2019-02-15T15:22:52.152Z,10.10
2019-02-15T15:25:21.750Z,10.20
2019-02-15T15:27:51.377Z,10.10
2019-02-15T15:30:20.982Z,10.00
2019-02-15T15:32:50.606Z,9.90
2019-02-15T15:35:20.222Z,9.90
2019-02-15T15:37:49.852Z,9.80
2019-02-15T15:40:19.447Z,9.80
2019-02-15T15:42:49.070Z,9.70
2019-02-15T15:45:18.957Z,9.70
2019-02-15T15:47:48.580Z,9.60
2019-02-15T15:50:18.172Z,9.60
2019-02-15T15:52:47.769Z,9.50
2019-02-15T15:55:17.920Z,9.40
2019-02-15T15:57:47.525Z,9.30
2019-02-15T16:00:17.656Z,9.30
2019-02-15T16:02:47.318Z,9.10
2019-02-15T16:05:16.941Z,9.00
2019-02-15T16:07:46.539Z,8.90
2019-02-15T16:10:17.025Z,8.70
2019-02-15T16:12:46.607Z,8.50
2019-02-15T16:15:16.737Z,8.30
2019-02-15T16:17:46.329Z,8.10
2019-02-15T16:20:15.922Z,7.90
2019-02-15T16:22:45.538Z,7.80
2019-02-15T16:25:15.450Z,7.50
2019-02-15T16:27:45.069Z,7.20
2019-02-15T16:30:16.396Z,7.00
2019-02-15T16:32:46.008Z,6.90
2019-02-15T16:35:15.693Z,7.00
2019-02-15T16:37:45.319Z,7.00
2019-02-15T16:40:16.359Z,6.90
2019-02-15T16:42:46.038Z,6.80
2019-02-15T16:45:16.675Z,6.70
2019-02-15T16:47:46.326Z,6.70
2019-02-15T16:50:16.021Z,6.50
2019-02-15T16:52:45.615Z,6.40
2019-02-15T16:55:15.303Z,6.30
2019-02-15T16:57:44.907Z,6.20
2019-02-15T17:00:15.137Z,6.00
2019-02-15T17:02:44.732Z,5.90
2019-02-15T17:05:14.771Z,5.70
2019-02-15T17:07:44.836Z,5.70
2019-02-15T17:10:14.569Z,5.70
2019-02-15T17:12:44.260Z,5.70
2019-02-15T17:15:17.108Z,5.70
2019-02-15T17:17:46.737Z,5.70
2019-02-15T17:20:16.334Z,5.70
2019-02-15T17:22:45.951Z,5.70
2019-02-15T17:25:15.623Z,5.60
2019-02-15T17:27:45.274Z,5.50
2019-02-15T17:30:15.007Z,5.50
2019-02-15T17:32:44.598Z,5.30
2019-02-15T17:35:14.224Z,5.30
2019-02-15T17:37:44.609Z,5.20
2019-02-15T17:40:16.696Z,5.00
2019-02-15T17:42:46.387Z,4.90
2019-02-15T17:45:16.146Z,4.80
2019-02-15T17:47:45.751Z,4.70
2019-02-15T17:50:15.440Z,4.70
2019-02-15T17:52:45.060Z,4.80
2019-02-15T17:55:14.797Z,4.80
2019-02-15T17:57:44.570Z,4.80
2019-02-15T18:00:17.409Z,4.70
2019-02-15T18:02:47.003Z,4.60
2019-02-15T18:05:16.735Z,4.60
2019-02-15T18:07:50.874Z,4.60
2019-02-15T18:10:20.477Z,4.50
2019-02-15T18:12:50.072Z,4.40
2019-02-15T18:15:19.761Z,4.40
2019-02-15T18:17:49.362Z,4.40
2019-02-15T18:20:18.975Z,4.40
2019-02-15T18:22:48.572Z,4.30
2019-02-15T18:25:18.170Z,4.30
2019-02-15T18:27:47.788Z,4.30
2019-02-15T18:30:18.218Z,4.20
2019-02-15T18:32:48.052Z,4.30
2019-02-15T18:35:18.113Z,4.10
2019-02-15T18:37:47.740Z,4.10
2019-02-15T18:40:17.404Z,4.00
2019-02-15T18:42:47.009Z,4.10
2019-02-15T18:45:17.771Z,4.00
2019-02-15T18:47:47.367Z,4.10
2019-02-15T18:50:16.984Z,4.10
2019-02-15T18:52:46.612Z,4.10
2019-02-15T18:55:16.230Z,4.10
2019-02-15T18:57:45.826Z,4.10
2019-02-15T19:00:17.133Z,4.00
2019-02-15T19:02:51.990Z,3.60
2019-02-15T19:05:21.723Z,3.50
2019-02-15T19:07:51.309Z,3.40
2019-02-15T19:10:24.874Z,3.20
2019-02-15T19:12:54.468Z,3.00
2019-02-15T19:15:24.228Z,2.70
2019-02-15T19:17:53.833Z,2.50
2019-02-15T19:20:23.472Z,2.60
2019-02-15T19:22:53.067Z,2.80
2019-02-15T19:25:22.662Z,3.10
2019-02-15T19:27:52.289Z,3.30
2019-02-15T19:30:26.765Z,3.30
2019-02-15T19:32:56.385Z,3.30
2019-02-15T19:35:25.977Z,3.30
2019-02-15T19:37:55.603Z,3.30
2019-02-15T19:40:25.226Z,3.40
2019-02-15T19:43:02.085Z,3.40
2019-02-15T19:45:31.725Z,3.50
2019-02-15T19:48:01.343Z,3.40
2019-02-15T19:50:30.969Z,3.00
2019-02-15T19:53:00.562Z,2.70
2019-02-15T19:55:30.191Z,2.50
2019-02-15T19:57:59.819Z,2.40
2019-02-15T20:00:30.182Z,2.30
2019-02-15T20:03:00.082Z,2.00
2019-02-15T20:05:29.705Z,1.80
2019-02-15T20:07:59.303Z,1.80
2019-02-15T20:10:29.293Z,2.00
2019-02-15T20:13:00.774Z,1.80
2019-02-15T20:15:30.232Z,1.80
2019-02-15T20:17:59.833Z,1.60
2019-02-15T20:20:29.448Z,1.50
2019-02-15T20:22:59.074Z,1.50
2019-02-15T20:25:28.699Z,1.60
2019-02-15T20:27:58.283Z,1.60
2019-02-15T20:30:27.918Z,1.60
2019-02-15T20:32:57.500Z,1.50
2019-02-15T20:35:27.127Z,1.50
2019-02-15T20:37:56.719Z,1.50
2019-02-15T20:40:26.328Z,1.40
2019-02-15T20:42:55.928Z,1.30
2019-02-15T20:45:25.722Z,1.00
2019-02-15T20:47:55.316Z,0.90
2019-02-15T20:50:24.941Z,1.00
2019-02-15T20:52:54.531Z,0.80
2019-02-15T20:55:26.324Z,0.70
2019-02-15T20:57:55.502Z,0.70
2019-02-15T21:00:31.658Z,0.80
2019-02-15T21:03:02.149Z,0.80
2019-02-15T21:05:31.765Z,0.90
2019-02-15T21:08:01.385Z,1.00
2019-02-15T21:10:31.748Z,1.00
2019-02-15T21:13:01.371Z,0.90
2019-02-15T21:15:30.962Z,0.80
2019-02-15T21:18:00.583Z,0.60
2019-02-15T21:20:30.206Z,0.70
2019-02-15T21:22:59.802Z,0.80
2019-02-15T21:25:29.423Z,0.80
2019-02-15T21:27:59.017Z,0.80
2019-02-15T21:30:28.644Z,0.70
2019-02-15T21:32:58.262Z,0.70
2019-02-15T21:35:27.893Z,0.70
2019-02-15T21:37:57.485Z,0.70
2019-02-15T21:40:27.113Z,0.80
2019-02-15T21:42:57.045Z,0.70
2019-02-15T21:45:26.665Z,0.70
2019-02-15T21:47:56.256Z,0.60
2019-02-15T21:50:25.868Z,0.40
2019-02-15T21:52:55.488Z,0.40
2019-02-15T21:55:25.114Z,0.40
2019-02-15T21:58:01.123Z,0.40
2019-02-15T22:00:28.272Z,0.40
2019-02-15T22:02:58.200Z,0.40
2019-02-15T22:05:27.789Z,0.40
2019-02-15T22:07:57.406Z,0.40
2019-02-15T22:10:27.067Z,0.40
2019-02-15T22:12:56.700Z,0.40
2019-02-15T22:15:26.301Z,0.30
2019-02-15T22:17:55.903Z,0.30
2019-02-15T22:20:27.042Z,0.10
2019-02-15T22:22:56.889Z,0.00
2019-02-15T22:25:26.513Z,0.00
2019-02-15T22:27:56.109Z,0.10
2019-02-15T22:30:26.008Z,0.20
2019-02-15T22:32:55.631Z,0.20
2019-02-15T22:35:25.231Z,0.10
2019-02-15T22:37:55.340Z,0.10
2019-02-15T22:40:34.000Z,0.20
2019-02-15T22:43:11.577Z,0.10
2019-02-15T22:45:41.196Z,0.10
2019-02-15T22:48:10.849Z,0.20
2019-02-15T22:50:40.805Z,0.10
2019-02-15T22:53:10.404Z,0.10
2019-02-15T22:55:40.028Z,0.10
2019-02-15T22:58:09.624Z,0.00
2019-02-15T23:00:51.334Z,-0.10
2019-02-15T23:03:24.417Z,-0.20
2019-02-15T23:05:54.105Z,-0.10
2019-02-15T23:08:23.732Z,-0.10
2019-02-15T23:10:53.509Z,-0.10
2019-02-15T23:13:23.100Z,0.00
2019-02-15T23:15:52.797Z,-0.10
2019-02-15T23:18:22.399Z,-0.10
2019-02-15T23:20:52.799Z,-0.30
2019-02-15T23:23:22.402Z,-0.30
2019-02-15T23:25:53.900Z,-0.30
2019-02-15T23:28:23.532Z,-0.30
2019-02-15T23:30:53.161Z,-0.30
2019-02-15T23:33:23.429Z,-0.20
2019-02-15T23:35:53.120Z,-0.20
2019-02-15T23:38:22.760Z,-0.20
2019-02-15T23:40:52.358Z,-0.30
2019-02-15T23:43:21.963Z,-0.40
2019-02-15T23:45:51.862Z,-0.50
2019-02-15T23:48:21.529Z,-0.60
2019-02-15T23:50:55.083Z,-0.80
2019-02-15T23:53:23.267Z,-0.80
2019-02-15T23:55:52.865Z,-0.80
2019-02-15T23:58:22.494Z,-0.90
